Time;durP1;ratioP1;P1;durP2;ratioP2;P2;SDS_P1;SDS_P2;PMS_P1;PMS_P2;Temp;Humidity;BMP_temperature;BMP_pressure;BME280_temperature;BME280_humidity;BME280_pressure;Samples;Min_cycle;Max_cycle;Signal;HPM_P1;HPM_P2
2023/08/15 00:00:18;;;;;;;0.70;0.50;;;22.50;72.60;;;;;;5024535;28;20037;-74
2023/08/15 00:02:44;;;;;;;0.40;0.40;;;22.50;72.50;;;;;;5025708;28;20052;-74
2023/08/15 00:05:10;;;;;;;0.70;0.70;;;22.50;72.60;;;;;;4989960;28;20042;-74
2023/08/15 00:07:35;;;;;;;0.40;0.40;;;22.50;72.60;;;;;;5023882;28;20046;-74
2023/08/15 00:10:01;;;;;;;0.40;0.40;;;22.50;73.30;;;;;;5022782;28;20415;-74
2023/08/15 00:12:26;;;;;;;0.50;0.45;;;22.50;72.50;;;;;;5027471;28;20061;-74
2023/08/15 00:14:52;;;;;;;0.40;0.40;;;22.50;72.50;;;;;;5027555;28;20060;-75
2023/08/15 00:17:17;;;;;;;0.52;0.52;;;22.50;72.50;;;;;;5025291;28;20033;-74
2023/08/15 00:19:43;;;;;;;0.52;0.50;;;22.50;73.20;;;;;;5027382;28;20041;-74
2023/08/15 00:22:09;;;;;;;0.40;0.40;;;22.50;72.60;;;;;;5027449;28;20087;-74
2023/08/15 00:24:34;;;;;;;0.30;0.30;;;22.50;72.50;;;;;;5027860;28;20525;-74
2023/08/15 00:27:00;;;;;;;0.52;0.52;;;22.50;72.50;;;;;;5027043;28;20049;-75
2023/08/15 00:29:25;;;;;;;0.60;0.60;;;22.50;72.50;;;;;;5028449;28;20132;-74
2023/08/15 00:31:51;;;;;;;0.40;0.40;;;22.50;72.60;;;;;;5028003;28;20566;-74
2023/08/15 00:34:16;;;;;;;0.60;0.60;;;22.50;72.60;;;;;;5029006;28;20810;-74
2023/08/15 00:36:42;;;;;;;0.90;0.80;;;22.50;72.60;;;;;;5027561;28;20558;-74
2023/08/15 00:39:07;;;;;;;0.98;0.88;;;22.50;72.60;;;;;;5029151;28;20045;-74
2023/08/15 00:41:33;;;;;;;0.40;0.40;;;22.50;72.60;;;;;;5027903;28;20099;-74
2023/08/15 00:43:59;;;;;;;0.50;0.50;;;22.50;72.60;;;;;;5027539;28;20490;-75
2023/08/15 00:46:30;;;;;;;0.68;0.45;;;22.50;72.60;;;;;;5025867;28;20044;-74
2023/08/15 00:48:55;;;;;;;0.55;0.55;;;22.50;72.60;;;;;;5025871;28;20053;-74
2023/08/15 00:51:21;;;;;;;0.50;0.43;;;22.50;72.60;;;;;;5028119;28;20076;-74
2023/08/15 00:53:46;;;;;;;0.50;0.50;;;22.50;72.60;;;;;;5028131;28;20596;-74
2023/08/15 00:56:13;;;;;;;1.05;0.70;;;22.40;72.60;;;;;;5026768;28;20053;-74
2023/08/15 00:58:38;;;;;;;0.82;0.70;;;22.50;72.60;;;;;;5010978;28;20146;-74
2023/08/15 01:01:04;;;;;;;0.47;0.47;;;22.40;72.60;;;;;;5026326;28;20116;-74
2023/08/15 01:03:29;;;;;;;0.40;0.40;;;22.50;72.80;;;;;;5025663;28;20053;-74
2023/08/15 01:05:55;;;;;;;0.47;0.47;;;22.50;72.80;;;;;;5026928;28;20502;-75
2023/08/15 01:08:21;;;;;;;1.30;0.50;;;22.40;72.70;;;;;;5026800;28;20103;-74
2023/08/15 01:10:46;;;;;;;0.43;0.43;;;22.50;72.80;;;;;;5026358;28;20578;-74
2023/08/15 01:13:34;;;;;;;0.47;0.40;;;22.40;72.70;;;;;;5010462;28;20061;-74
2023/08/15 01:15:59;;;;;;;0.50;0.50;;;22.40;72.70;;;;;;4992562;28;20053;-74
2023/08/15 01:18:34;;;;;;;0.55;0.50;;;22.40;72.70;;;;;;5024417;28;20054;-74
2023/08/15 01:21:00;;;;;;;0.95;0.60;;;22.40;72.70;;;;;;5027132;28;20182;-75
2023/08/15 01:23:39;;;;;;;0.60;0.60;;;22.40;72.70;;;;;;5009059;28;20501;-74
2023/08/15 01:26:04;;;;;;;0.80;0.80;;;22.40;72.60;;;;;;5022975;28;20520;-74
2023/08/15 01:28:31;;;;;;;0.50;0.50;;;22.40;72.70;;;;;;5009563;28;20086;-74
2023/08/15 01:31:24;;;;;;;0.50;0.50;;;22.50;72.80;;;;;;5026931;28;20160;-75
2023/08/15 01:33:54;;;;;;;0.40;0.40;;;22.40;72.70;;;;;;5025980;28;20080;-74
2023/08/15 01:36:23;;;;;;;0.82;0.50;;;22.40;72.70;;;;;;5024132;28;20056;-74
2023/08/15 01:38:59;;;;;;;0.50;0.50;;;22.40;72.70;;;;;;5011325;28;20041;-74
2023/08/15 01:41:25;;;;;;;0.52;0.52;;;22.40;72.70;;;;;;5005741;28;20528;-74
2023/08/15 01:43:51;;;;;;;0.73;0.73;;;22.40;72.70;;;;;;5026688;28;20042;-74
2023/08/15 01:46:16;;;;;;;0.60;0.60;;;22.40;72.80;;;;;;4991838;28;23361;-74
2023/08/15 01:48:42;;;;;;;0.50;0.50;;;22.40;72.70;;;;;;5008429;28;20572;-74
2023/08/15 01:51:08;;;;;;;0.52;0.52;;;22.40;72.70;;;;;;5026034;28;20045;-74
2023/08/15 01:53:34;;;;;;;0.85;0.57;;;22.40;72.80;;;;;;5025869;28;20040;-74
2023/08/15 01:56:00;;;;;;;0.50;0.50;;;22.40;72.80;;;;;;5025891;28;20424;-75
2023/08/15 01:58:25;;;;;;;0.50;0.50;;;22.40;72.70;;;;;;5025555;28;20038;-74
2023/08/15 02:00:51;;;;;;;0.35;0.35;;;22.40;72.80;;;;;;5025893;28;20085;-74
2023/08/15 02:03:16;;;;;;;0.82;0.55;;;22.40;72.80;;;;;;5025617;28;20121;-74
2023/08/15 02:05:42;;;;;;;0.40;0.40;;;22.40;72.80;;;;;;5028063;28;20052;-74
2023/08/15 02:08:08;;;;;;;0.50;0.50;;;22.40;72.70;;;;;;5025306;28;20040;-74
2023/08/15 02:10:34;;;;;;;0.50;0.43;;;22.40;72.70;;;;;;5025945;28;20096;-74
2023/08/15 02:12:59;;;;;;;0.43;0.28;;;22.40;72.70;;;;;;5025994;28;20500;-75
2023/08/15 02:15:25;;;;;;;0.65;0.50;;;22.40;72.70;;;;;;5025229;28;20056;-74
2023/08/15 02:17:50;;;;;;;0.43;0.43;;;22.40;72.60;;;;;;5027206;28;20821;-74
2023/08/15 02:20:16;;;;;;;0.43;0.43;;;22.40;73.50;;;;;;5008643;28;20046;-74
2023/08/15 02:22:42;;;;;;;0.77;0.60;;;22.40;72.60;;;;;;5024902;28;20491;-74
2023/08/15 02:25:08;;;;;;;0.43;0.40;;;22.40;72.60;;;;;;5024063;28;20478;-75
2023/08/15 02:27:33;;;;;;;0.30;0.30;;;22.40;72.60;;;;;;5026285;28;20582;-74
2023/08/15 02:29:59;;;;;;;0.45;0.40;;;22.40;72.60;;;;;;5026256;28;20415;-74
2023/08/15 02:32:24;;;;;;;0.30;0.30;;;22.40;72.50;;;;;;5024301;28;20041;-74
2023/08/15 02:34:50;;;;;;;0.40;0.40;;;22.40;72.60;;;;;;5012104;28;20057;-74
2023/08/15 02:37:16;;;;;;;0.38;0.35;;;22.40;72.50;;;;;;5024756;28;20057;-74
2023/08/15 02:39:42;;;;;;;0.60;0.45;;;22.40;72.40;;;;;;5024361;28;20038;-74
2023/08/15 02:42:07;;;;;;;0.35;0.30;;;22.40;72.40;;;;;;5026023;28;20519;-74
2023/08/15 02:44:33;;;;;;;0.30;0.30;;;22.40;72.40;;;;;;5025971;28;20037;-74
2023/08/15 02:46:58;;;;;;;0.30;0.30;;;22.40;72.30;;;;;;5024968;28;20049;-74
2023/08/15 02:49:24;;;;;;;0.40;0.40;;;22.40;72.40;;;;;;5022914;28;20064;-74
2023/08/15 02:51:50;;;;;;;0.43;0.43;;;22.40;72.40;;;;;;5025041;28;20046;-74
2023/08/15 02:54:15;;;;;;;0.55;0.40;;;22.40;72.40;;;;;;5024585;28;20053;-74
2023/08/15 02:56:41;;;;;;;0.40;0.40;;;22.40;72.50;;;;;;5026044;28;20061;-74
2023/08/15 02:59:06;;;;;;;0.30;0.30;;;22.40;72.40;;;;;;5024187;28;20026;-75
2023/08/15 03:01:32;;;;;;;0.45;0.45;;;22.40;72.30;;;;;;5023914;28;20151;-74
2023/08/15 03:03:58;;;;;;;0.30;0.30;;;22.40;72.30;;;;;;5025192;28;20041;-74
2023/08/15 03:06:24;;;;;;;0.50;0.50;;;22.40;72.30;;;;;;5023632;28;20037;-74
2023/08/15 03:08:49;;;;;;;0.60;0.40;;;22.40;72.30;;;;;;5025375;28;20034;-74
2023/08/15 03:11:15;;;;;;;0.30;0.30;;;22.40;72.30;;;;;;5024659;28;20035;-74
2023/08/15 03:13:40;;;;;;;0.40;0.30;;;22.40;72.40;;;;;;5025597;28;20076;-74
2023/08/15 03:16:06;;;;;;;0.20;0.20;;;22.40;72.30;;;;;;5023809;28;20124;-75
2023/08/15 03:18:31;;;;;;;0.28;0.28;;;22.40;72.30;;;;;;5026192;28;20510;-74
2023/08/15 03:20:58;;;;;;;1.23;0.30;;;22.40;72.30;;;;;;5025340;28;20417;-74
2023/08/15 03:23:24;;;;;;;0.40;0.30;;;22.40;72.20;;;;;;5002465;28;20050;-74
2023/08/15 03:25:58;;;;;;;0.30;0.30;;;22.40;72.20;;;;;;5024453;28;20057;-74
2023/08/15 03:28:24;;;;;;;0.30;0.30;;;22.40;72.20;;;;;;5025082;28;20107;-74
2023/08/15 03:30:50;;;;;;;0.40;0.40;;;22.40;72.20;;;;;;5006009;28;20049;-74
2023/08/15 03:33:16;;;;;;;0.50;0.50;;;22.40;72.10;;;;;;5023546;28;20100;-74
2023/08/15 03:35:48;;;;;;;0.30;0.30;;;22.30;72.10;;;;;;5025452;28;20052;-74
2023/08/15 03:38:18;;;;;;;0.30;0.30;;;22.40;72.30;;;;;;5023109;28;20442;-74
2023/08/15 03:40:44;;;;;;;0.20;0.20;;;22.40;72.20;;;;;;5007345;28;20117;-74
2023/08/15 03:43:10;;;;;;;0.30;0.20;;;22.40;72.20;;;;;;5006393;28;20117;-74
2023/08/15 03:45:36;;;;;;;0.30;0.30;;;22.40;72.30;;;;;;5024505;28;20519;-74
2023/08/15 03:48:02;;;;;;;0.40;0.30;;;22.40;72.20;;;;;;5023796;28;20037;-74
2023/08/15 03:50:31;;;;;;;0.40;0.40;;;22.40;72.20;;;;;;5025067;28;20439;-73
2023/08/15 03:52:56;;;;;;;0.20;0.20;;;22.40;72.20;;;;;;5023529;28;20036;-74
2023/08/15 03:55:22;;;;;;;0.30;0.30;;;22.30;72.10;;;;;;5007563;28;20042;-74
2023/08/15 03:57:47;;;;;;;0.40;0.40;;;22.40;72.90;;;;;;5023470;28;20073;-73
2023/08/15 04:00:13;;;;;;;0.30;0.30;;;22.40;72.10;;;;;;5023996;28;20519;-74
2023/08/15 04:02:39;;;;;;;0.40;0.30;;;22.40;72.10;;;;;;5025462;28;20033;-74
2023/08/15 04:05:04;;;;;;;0.60;0.40;;;22.30;72.00;;;;;;5023522;28;20046;-73
2023/08/15 04:07:30;;;;;;;0.30;0.30;;;22.30;72.10;;;;;;5023224;28;20022;-74
2023/08/15 04:09:56;;;;;;;0.30;0.30;;;22.40;72.10;;;;;;5023894;28;20056;-73
2023/08/15 04:12:21;;;;;;;0.63;0.30;;;22.40;72.10;;;;;;5023887;28;20047;-74
2023/08/15 04:14:47;;;;;;;0.30;0.30;;;22.30;72.00;;;;;;5024671;28;20474;-74
2023/08/15 04:17:12;;;;;;;0.43;0.30;;;22.30;72.80;;;;;;5019465;28;20044;-74
2023/08/15 04:19:38;;;;;;;0.20;0.20;;;22.40;72.10;;;;;;5024817;28;20041;-74
2023/08/15 04:22:03;;;;;;;0.38;0.30;;;22.40;72.10;;;;;;5024878;28;20033;-73
2023/08/15 04:24:29;;;;;;;0.30;0.20;;;22.40;72.10;;;;;;5022843;28;20083;-74
2023/08/15 04:26:54;;;;;;;0.55;0.30;;;22.30;72.00;;;;;;5026077;28;20071;-74
2023/08/15 04:29:20;;;;;;;0.30;0.30;;;22.30;72.00;;;;;;5019035;28;20068;-74
2023/08/15 04:31:46;;;;;;;0.13;0.13;;;22.30;72.00;;;;;;5026048;28;20040;-74
2023/08/15 04:34:11;;;;;;;0.20;0.20;;;22.40;72.10;;;;;;5025984;28;20100;-74
2023/08/15 04:36:38;;;;;;;0.25;0.25;;;22.40;72.10;;;;;;5026225;28;20033;-73
2023/08/15 04:39:04;;;;;;;0.20;0.20;;;22.30;72.00;;;;;;5025520;28;20104;-74
2023/08/15 04:41:29;;;;;;;0.40;0.40;;;22.30;72.00;;;;;;5022006;28;20125;-74
2023/08/15 04:43:55;;;;;;;0.30;0.30;;;22.30;72.10;;;;;;5023740;28;20037;-74
2023/08/15 04:46:20;;;;;;;0.20;0.20;;;22.30;72.10;;;;;;5023355;28;20045;-74
2023/08/15 04:48:46;;;;;;;0.20;0.20;;;22.30;72.10;;;;;;5021587;28;20574;-74
2023/08/15 04:51:11;;;;;;;0.20;0.20;;;22.30;72.00;;;;;;5025895;28;20037;-74
2023/08/15 04:53:37;;;;;;;0.30;0.20;;;22.30;72.10;;;;;;5023951;28;20488;-74
2023/08/15 04:56:03;;;;;;;0.22;0.22;;;22.30;72.00;;;;;;5023955;28;20050;-73
2023/08/15 04:58:28;;;;;;;0.22;0.20;;;22.30;72.10;;;;;;5022402;28;20128;-74
2023/08/15 05:00:54;;;;;;;0.30;0.30;;;22.30;72.00;;;;;;5027444;28;20064;-74
2023/08/15 05:03:19;;;;;;;0.30;0.30;;;22.30;72.10;;;;;;5026959;28;20041;-74
2023/08/15 05:05:45;;;;;;;0.40;0.38;;;22.30;72.00;;;;;;5027391;28;20034;-74
2023/08/15 05:08:12;;;;;;;0.20;0.20;;;22.30;72.00;;;;;;5026877;28;20038;-74
2023/08/15 05:10:37;;;;;;;0.30;0.22;;;22.30;72.10;;;;;;5027975;28;20107;-74
2023/08/15 05:13:03;;;;;;;0.20;0.20;;;22.30;72.00;;;;;;5026964;28;20056;-74
2023/08/15 05:15:29;;;;;;;0.30;0.30;;;22.30;72.00;;;;;;5025582;28;20507;-74
2023/08/15 05:17:54;;;;;;;0.30;0.30;;;22.30;72.10;;;;;;5027082;28;20037;-74
2023/08/15 05:20:20;;;;;;;0.32;0.32;;;22.30;72.10;;;;;;5026931;28;20094;-74
2023/08/15 05:22:45;;;;;;;0.20;0.20;;;22.30;72.10;;;;;;5027376;28;20065;-74
2023/08/15 05:25:11;;;;;;;0.65;0.30;;;22.30;72.00;;;;;;5023655;28;20041;-74
2023/08/15 05:27:36;;;;;;;0.30;0.30;;;22.30;72.00;;;;;;5026698;28;20125;-74
2023/08/15 05:30:02;;;;;;;0.38;0.38;;;22.30;72.00;;;;;;5029523;28;20487;-74
2023/08/15 05:32:28;;;;;;;0.25;0.25;;;22.30;72.00;;;;;;5026232;28;20063;-74
2023/08/15 05:34:54;;;;;;;0.20;0.20;;;22.30;72.00;;;;;;5027085;28;20059;-74
2023/08/15 05:37:19;;;;;;;0.30;0.30;;;22.30;72.00;;;;;;5024357;28;20041;-74
2023/08/15 05:39:45;;;;;;;0.28;0.20;;;22.30;72.00;;;;;;5026078;28;20038;-74
2023/08/15 05:42:17;;;;;;;0.10;0.10;;;22.30;72.10;;;;;;5025844;28;20069;-77
2023/08/15 05:44:43;;;;;;;0.20;0.20;;;22.30;72.10;;;;;;5025624;28;20041;-77
2023/08/15 05:47:08;;;;;;;0.17;0.17;;;22.30;72.00;;;;;;5026615;28;20037;-77
2023/08/15 05:49:34;;;;;;;0.30;0.30;;;22.30;72.00;;;;;;5023487;28;20384;-76
2023/08/15 05:52:01;;;;;;;0.20;0.20;;;22.30;72.00;;;;;;5026616;28;20072;-76
2023/08/15 05:54:27;;;;;;;0.20;0.20;;;22.30;72.00;;;;;;5024902;28;20040;-77
2023/08/15 05:56:53;;;;;;;0.13;0.13;;;22.30;72.00;;;;;;5026170;28;20504;-77
2023/08/15 05:59:18;;;;;;;0.20;0.20;;;22.30;72.00;;;;;;5024988;28;20618;-77
2023/08/15 06:01:45;;;;;;;0.40;0.22;;;22.30;72.00;;;;;;5026265;28;20441;-77
2023/08/15 06:04:10;;;;;;;0.20;0.20;;;22.30;72.10;;;;;;5025462;28;20523;-77
2023/08/15 06:06:36;;;;;;;0.30;0.30;;;22.30;72.00;;;;;;5007626;28;20046;-77
2023/08/15 06:09:02;;;;;;;0.30;0.30;;;22.30;72.10;;;;;;5025365;28;20029;-77
2023/08/15 06:11:27;;;;;;;0.40;0.20;;;22.30;72.10;;;;;;5006513;28;20466;-77
2023/08/15 06:13:53;;;;;;;0.10;0.10;;;22.30;72.10;;;;;;5024825;28;20526;-77
2023/08/15 06:16:18;;;;;;;0.17;0.17;;;22.30;72.10;;;;;;5024712;28;20415;-76
2023/08/15 06:18:44;;;;;;;0.30;0.30;;;22.30;72.10;;;;;;5025785;28;20033;-77
2023/08/15 06:21:09;;;;;;;0.30;0.20;;;22.30;72.10;;;;;;5027600;28;20045;-77
2023/08/15 06:23:35;;;;;;;0.20;0.20;;;22.30;72.10;;;;;;5024465;28;20141;-77
2023/08/15 06:26:01;;;;;;;0.30;0.20;;;22.30;72.10;;;;;;5026466;28;20045;-77
2023/08/15 06:28:26;;;;;;;0.57;0.30;;;22.20;72.20;;;;;;5025162;28;20080;-77
2023/08/15 06:30:52;;;;;;;0.20;0.20;;;22.20;72.10;;;;;;5025239;28;20048;-77
2023/08/15 06:33:17;;;;;;;0.30;0.30;;;22.30;72.20;;;;;;5026395;28;20045;-77
2023/08/15 06:35:43;;;;;;;0.10;0.10;;;22.30;72.20;;;;;;5025837;28;20037;-77
2023/08/15 06:38:08;;;;;;;0.17;0.17;;;22.20;72.10;;;;;;5024502;28;20124;-77
2023/08/15 06:40:34;;;;;;;0.28;0.28;;;22.30;72.20;;;;;;5007355;28;20435;-77
2023/08/15 06:42:59;;;;;;;0.50;0.30;;;22.30;72.20;;;;;;5009371;28;20045;-77
2023/08/15 06:45:25;;;;;;;0.30;0.20;;;22.20;72.10;;;;;;5023182;28;20087;-77
2023/08/15 06:47:50;;;;;;;0.43;0.30;;;22.30;72.10;;;;;;5027332;28;20407;-77
2023/08/15 06:50:17;;;;;;;0.32;0.25;;;22.30;72.20;;;;;;5008724;28;20044;-77
2023/08/15 06:52:43;;;;;;;0.30;0.30;;;22.30;72.10;;;;;;5023627;28;20504;-77
2023/08/15 06:55:08;;;;;;;0.20;0.20;;;22.20;72.00;;;;;;5024805;28;20038;-77
2023/08/15 06:57:34;;;;;;;0.20;0.20;;;22.30;72.10;;;;;;5025132;28;20423;-77
2023/08/15 07:00:00;;;;;;;0.13;0.13;;;22.30;72.10;;;;;;5025137;28;20033;-77
2023/08/15 07:02:25;;;;;;;0.20;0.20;;;22.30;72.10;;;;;;5022713;28;20498;-77
2023/08/15 07:04:51;;;;;;;0.30;0.30;;;22.30;72.00;;;;;;5023860;28;20052;-77
2023/08/15 07:07:17;;;;;;;0.30;0.30;;;22.30;72.00;;;;;;5023970;28;20055;-77
2023/08/15 07:09:44;;;;;;;0.40;0.25;;;22.30;71.90;;;;;;5021113;28;20060;-77
2023/08/15 07:12:09;;;;;;;0.45;0.20;;;22.30;72.80;;;;;;5024934;28;20128;-77
2023/08/15 07:14:35;;;;;;;0.30;0.30;;;22.30;72.00;;;;;;5023493;28;20179;-77
2023/08/15 07:17:01;;;;;;;0.20;0.20;;;22.30;72.00;;;;;;5024788;28;20821;-77
2023/08/15 07:19:27;;;;;;;0.38;0.38;;;22.30;71.90;;;;;;5023814;28;20120;-77
2023/08/15 07:21:52;;;;;;;0.20;0.20;;;22.30;71.90;;;;;;5024186;28;20033;-77
2023/08/15 07:24:18;;;;;;;0.20;0.20;;;22.30;71.90;;;;;;5025021;28;20099;-77
2023/08/15 07:26:44;;;;;;;0.20;0.20;;;22.30;71.80;;;;;;5022198;28;20045;-77
2023/08/15 07:29:10;;;;;;;0.20;0.20;;;22.30;71.80;;;;;;5023606;28;20041;-77
2023/08/15 07:31:36;;;;;;;0.20;0.20;;;22.30;71.80;;;;;;5021011;28;20041;-77
2023/08/15 07:34:02;;;;;;;0.20;0.20;;;22.30;71.80;;;;;;5024661;28;20514;-77
2023/08/15 07:36:28;;;;;;;0.30;0.30;;;22.30;71.80;;;;;;5022629;28;20045;-77
2023/08/15 07:38:53;;;;;;;0.20;0.20;;;22.30;71.90;;;;;;5024771;28;20060;-77
2023/08/15 07:41:19;;;;;;;0.20;0.20;;;22.30;71.80;;;;;;5023093;28;20033;-77
2023/08/15 07:43:45;;;;;;;0.20;0.20;;;22.30;71.80;;;;;;5022318;28;20128;-77
2023/08/15 07:46:11;;;;;;;0.20;0.20;;;22.30;71.80;;;;;;5024730;28;20061;-77
2023/08/15 07:48:36;;;;;;;0.20;0.20;;;22.30;71.80;;;;;;5023167;28;20045;-77
2023/08/15 07:51:03;;;;;;;0.40;0.20;;;22.30;72.60;;;;;;5026273;28;20116;-77
2023/08/15 07:53:28;;;;;;;0.20;0.20;;;22.30;71.80;;;;;;5022699;28;20049;-77
2023/08/15 07:55:54;;;;;;;0.20;0.20;;;22.30;71.80;;;;;;5025281;28;20041;-77
2023/08/15 07:58:20;;;;;;;0.20;0.20;;;22.30;71.70;;;;;;5023003;28;20049;-77
2023/08/15 08:00:45;;;;;;;0.20;0.20;;;22.30;71.70;;;;;;5024409;28;20136;-77
2023/08/15 08:03:11;;;;;;;0.10;0.10;;;22.40;71.80;;;;;;5024971;28;20511;-77
2023/08/15 08:05:36;;;;;;;0.25;0.20;;;22.30;71.70;;;;;;5021502;28;20065;-77
2023/08/15 08:08:02;;;;;;;0.20;0.20;;;22.30;71.80;;;;;;5023341;28;20040;-77
2023/08/15 08:10:28;;;;;;;0.17;0.17;;;22.30;71.80;;;;;;5023997;28;20156;-77
2023/08/15 08:12:54;;;;;;;0.20;0.20;;;22.30;71.80;;;;;;5023674;28;20088;-77
2023/08/15 08:15:23;;;;;;;0.30;0.20;;;22.30;71.80;;;;;;5021902;28;20057;-77
2023/08/15 08:17:49;;;;;;;0.17;0.17;;;22.30;71.80;;;;;;5024533;28;20542;-77
2023/08/15 08:20:16;;;;;;;0.43;0.20;;;22.30;71.80;;;;;;5023920;28;20574;-77
2023/08/15 08:22:42;;;;;;;0.20;0.17;;;22.30;71.80;;;;;;5023321;28;20180;-77
2023/08/15 08:25:13;;;;;;;0.30;0.30;;;22.30;71.90;;;;;;5009737;28;20144;-77
2023/08/15 08:27:39;;;;;;;0.30;0.30;;;22.30;71.70;;;;;;5022835;28;20684;-77
2023/08/15 08:30:06;;;;;;;0.40;0.20;;;22.30;71.70;;;;;;5024761;28;20072;-77
2023/08/15 08:32:32;;;;;;;0.20;0.20;;;22.40;71.80;;;;;;5022704;28;20049;-77
2023/08/15 08:34:58;;;;;;;0.20;0.20;;;22.30;71.80;;;;;;5025415;28;20045;-77
2023/08/15 08:37:23;;;;;;;0.20;0.20;;;22.30;71.70;;;;;;5028111;28;20041;-77
2023/08/15 08:39:49;;;;;;;0.20;0.20;;;22.30;71.80;;;;;;5026843;28;20045;-77
2023/08/15 08:42:15;;;;;;;0.32;0.20;;;22.40;71.80;;;;;;5012222;28;20034;-77
2023/08/15 08:44:41;;;;;;;0.40;0.20;;;22.40;72.60;;;;;;5008233;28;20565;-77
2023/08/15 08:47:07;;;;;;;0.30;0.30;;;22.40;71.80;;;;;;5011657;28;20056;-77
2023/08/15 08:49:33;;;;;;;0.20;0.20;;;22.40;71.70;;;;;;5006421;28;20041;-77
2023/08/15 08:51:59;;;;;;;0.20;0.20;;;22.40;71.80;;;;;;5011053;28;20510;-77
2023/08/15 08:54:24;;;;;;;0.10;0.10;;;22.40;71.80;;;;;;5026016;28;20042;-77
2023/08/15 08:56:51;;;;;;;0.30;0.30;;;22.40;71.80;;;;;;5028276;28;20033;-77
2023/08/15 08:59:17;;;;;;;0.20;0.17;;;22.30;71.70;;;;;;5026509;28;20034;-77
2023/08/15 09:01:43;;;;;;;0.10;0.10;;;22.40;71.70;;;;;;5009598;28;20467;-77
2023/08/15 09:04:08;;;;;;;0.28;0.20;;;22.40;71.60;;;;;;5026603;28;20056;-77
2023/08/15 09:06:34;;;;;;;0.20;0.20;;;22.40;71.70;;;;;;5009840;28;20730;-77
2023/08/15 09:08:59;;;;;;;0.20;0.20;;;22.40;71.60;;;;;;5028016;28;20052;-77
2023/08/15 09:11:35;;;;;;;0.20;0.20;;;22.40;71.50;;;;;;5027272;28;20495;-77
2023/08/15 09:14:04;;;;;;;0.20;0.20;;;22.40;71.60;;;;;;5027403;28;20044;-77
2023/08/15 09:16:30;;;;;;;0.40;0.20;;;22.40;71.60;;;;;;5009679;28;20072;-77
2023/08/15 09:18:57;;;;;;;0.20;0.20;;;22.40;71.60;;;;;;5027291;28;20042;-77
2023/08/15 09:21:26;;;;;;;0.13;0.13;;;22.40;71.50;;;;;;5010546;28;20049;-77
2023/08/15 09:23:52;;;;;;;1.85;0.38;;;22.40;72.30;;;;;;5027385;28;20037;-78
2023/08/15 09:26:17;;;;;;;0.28;0.28;;;22.40;71.50;;;;;;5026574;28;20045;-77
2023/08/15 09:28:44;;;;;;;0.20;0.20;;;22.40;71.50;;;;;;5010038;28;20108;-77
2023/08/15 09:31:10;;;;;;;0.20;0.20;;;22.40;71.90;;;;;;5027108;28;20096;-77
2023/08/15 09:33:39;;;;;;;0.30;0.30;;;22.40;71.50;;;;;;5022327;28;20439;-77
2023/08/15 09:36:05;;;;;;;0.20;0.20;;;22.40;71.40;;;;;;5028001;28;20504;-77
2023/08/15 09:38:31;;;;;;;0.22;0.20;;;22.40;71.50;;;;;;5025179;28;20042;-77
2023/08/15 09:40:57;;;;;;;0.30;0.28;;;22.40;71.40;;;;;;5024687;28;20080;-77
2023/08/15 09:43:22;;;;;;;0.17;0.17;;;22.40;72.20;;;;;;5027977;28;20041;-77
2023/08/15 09:45:48;;;;;;;0.20;0.20;;;22.40;71.40;;;;;;5025733;28;20057;-77
2023/08/15 09:48:16;;;;;;;0.10;0.10;;;22.40;71.40;;;;;;5007230;28;20037;-77
2023/08/15 09:50:41;;;;;;;0.20;0.20;;;22.40;71.40;;;;;;5013501;28;20037;-77
2023/08/15 09:53:07;;;;;;;0.20;0.13;;;22.40;71.30;;;;;;5010102;28;20568;-77
2023/08/15 09:55:33;;;;;;;0.10;0.10;;;22.40;71.30;;;;;;5007353;28;20045;-77
2023/08/15 09:57:58;;;;;;;0.20;0.20;;;22.40;71.40;;;;;;5010064;28;20419;-77
2023/08/15 10:00:24;;;;;;;0.10;0.10;;;22.40;71.40;;;;;;5024510;28;20036;-77
2023/08/15 10:02:53;;;;;;;0.10;0.10;;;22.40;71.40;;;;;;4989032;28;20064;-77
2023/08/15 10:05:20;;;;;;;0.20;0.17;;;22.40;71.40;;;;;;5022724;28;20056;-78
2023/08/15 10:07:46;;;;;;;0.43;0.15;;;22.50;71.40;;;;;;5006498;28;20037;-77
2023/08/15 10:10:13;;;;;;;0.50;0.28;;;22.50;71.70;;;;;;5006805;28;20026;-77
2023/08/15 10:12:40;;;;;;;1.50;0.22;;;22.50;71.30;;;;;;5006728;28;20042;-78
2023/08/15 10:15:09;;;;;;;0.95;0.30;;;22.50;70.90;;;;;;5026065;28;20045;-78
2023/08/15 10:17:35;;;;;;;0.57;0.27;;;22.50;70.00;;;;;;4672540;28;10000593;-77
2023/08/15 10:20:01;;;;;;;0.63;0.30;;;22.50;70.70;;;;;;5005288;28;20050;-78
2023/08/15 10:22:27;;;;;;;0.30;0.15;;;22.50;70.30;;;;;;5025442;28;20499;-77
2023/08/15 10:24:54;;;;;;;1.63;0.20;;;22.50;70.10;;;;;;5025895;28;20057;-78
2023/08/15 10:27:20;;;;;;;0.28;0.10;;;22.50;69.90;;;;;;4676401;28;10000403;-77
2023/08/15 10:30:12;;;;;;;0.73;0.40;;;22.50;70.10;;;;;;5019492;28;20037;-78
2023/08/15 10:32:37;;;;;;;0.88;0.40;;;22.50;69.50;;;;;;5010444;28;20049;-77
2023/08/15 10:35:05;;;;;;;0.88;0.40;;;22.50;69.30;;;;;;5011029;28;20056;-77
2023/08/15 10:37:33;;;;;;;0.50;0.40;;;22.60;68.90;;;;;;5009824;28;20053;-77
2023/08/15 10:40:12;;;;;;;1.75;0.50;;;22.50;69.00;;;;;;5009725;28;20137;-78
2023/08/15 10:43:02;;;;;;;1.38;0.60;;;22.50;68.50;;;;;;5017985;28;20068;-77
2023/08/15 10:45:32;;;;;;;1.35;0.47;;;22.60;68.20;;;;;;5022213;28;20038;-79
2023/08/15 10:47:59;;;;;;;1.75;0.50;;;22.60;68.80;;;;;;5003908;28;20054;-77
2023/08/15 10:50:24;;;;;;;0.60;0.40;;;22.50;67.30;;;;;;5004600;28;20431;-78
2023/08/15 10:53:03;;;;;;;0.57;0.40;;;22.50;68.60;;;;;;5015614;28;20053;-77
2023/08/15 10:55:30;;;;;;;0.40;0.40;;;22.50;67.50;;;;;;5016460;28;20638;-78
2023/08/15 10:57:58;;;;;;;2.85;0.68;;;22.60;67.60;;;;;;5019413;28;20050;-78
2023/08/15 11:00:24;;;;;;;1.08;0.60;;;22.60;67.10;;;;;;5020572;28;20056;-78
2023/08/15 11:02:52;;;;;;;1.50;0.75;;;22.60;67.10;;;;;;5005483;28;20535;-78
2023/08/15 11:05:19;;;;;;;1.00;0.70;;;22.50;66.70;;;;;;5016687;28;20049;-76
2023/08/15 11:07:44;;;;;;;0.77;0.60;;;22.60;67.30;;;;;;5003379;28;20049;-77
2023/08/15 11:10:12;;;;;;;0.52;0.40;;;22.50;66.80;;;;;;5022027;28;20087;-77
2023/08/15 11:12:37;;;;;;;2.03;0.47;;;22.50;67.00;;;;;;5020790;28;20053;-77
2023/08/15 11:15:03;;;;;;;1.08;0.75;;;22.50;67.10;;;;;;5020773;28;20045;-77
2023/08/15 11:17:29;;;;;;;0.50;0.40;;;22.60;67.20;;;;;;5019681;28;20049;-77
2023/08/15 11:19:54;;;;;;;0.68;0.50;;;22.60;66.90;;;;;;5020458;28;20057;-77
2023/08/15 11:22:20;;;;;;;1.50;0.50;;;22.60;66.70;;;;;;5022687;28;20088;-77
2023/08/15 11:24:50;;;;;;;0.50;0.40;;;22.60;66.10;;;;;;5022845;28;20049;-77
2023/08/15 11:27:16;;;;;;;1.05;0.47;;;22.60;66.00;;;;;;5021241;28;20155;-77
2023/08/15 11:29:42;;;;;;;0.63;0.45;;;22.50;65.50;;;;;;5020682;28;20850;-77
2023/08/15 11:32:08;;;;;;;1.38;0.40;;;22.40;65.80;;;;;;5017971;28;20065;-77
2023/08/15 11:34:37;;;;;;;1.33;0.40;;;22.50;66.30;;;;;;5014148;28;20041;-76
2023/08/15 11:37:03;;;;;;;0.90;0.55;;;22.50;66.70;;;;;;5000645;28;20053;-78
2023/08/15 11:39:29;;;;;;;0.50;0.30;;;22.40;67.60;;;;;;5000007;28;20454;-76
2023/08/15 11:41:54;;;;;;;0.88;0.40;;;22.40;66.90;;;;;;5000986;28;20053;-76
2023/08/15 11:44:21;;;;;;;0.50;0.38;;;22.50;67.00;;;;;;4998807;28;20053;-76
2023/08/15 11:46:47;;;;;;;0.75;0.40;;;22.50;66.70;;;;;;5000180;28;20241;-76
2023/08/15 11:49:17;;;;;;;0.40;0.40;;;22.60;67.60;;;;;;4998657;28;20408;-76
2023/08/15 11:51:42;;;;;;;1.13;0.50;;;22.50;66.70;;;;;;4997568;28;20033;-76
2023/08/15 11:54:08;;;;;;;0.93;0.68;;;22.60;66.80;;;;;;4968544;28;20431;-76
2023/08/15 11:56:50;;;;;;;0.85;0.50;;;22.60;66.90;;;;;;4998773;28;20053;-76
2023/08/15 11:59:19;;;;;;;1.80;0.40;;;22.60;66.20;;;;;;4999899;28;20042;-75
2023/08/15 12:01:44;;;;;;;0.45;0.32;;;22.60;66.00;;;;;;5001071;28;20045;-76
2023/08/15 12:04:13;;;;;;;0.65;0.25;;;22.60;66.00;;;;;;5001655;28;20041;-77
2023/08/15 12:06:40;;;;;;;0.82;0.50;;;22.60;66.40;;;;;;5002653;28;20068;-76
2023/08/15 12:09:06;;;;;;;0.55;0.43;;;22.50;66.50;;;;;;5003372;28;20053;-78
2023/08/15 12:11:34;;;;;;;0.30;0.30;;;22.50;66.70;;;;;;4987781;28;20067;-77
2023/08/15 12:13:59;;;;;;;0.45;0.45;;;22.60;66.60;;;;;;4987746;28;20587;-76
2023/08/15 12:16:25;;;;;;;0.50;0.50;;;22.50;66.50;;;;;;4989492;28;20057;-76
2023/08/15 12:18:51;;;;;;;0.95;0.40;;;22.60;66.20;;;;;;5005608;28;20137;-76
2023/08/15 12:21:16;;;;;;;0.60;0.45;;;22.60;66.10;;;;;;5005939;28;20053;-76
2023/08/15 12:23:42;;;;;;;0.50;0.30;;;22.60;66.10;;;;;;4988651;28;20049;-76
2023/08/15 12:26:07;;;;;;;0.40;0.40;;;22.60;66.40;;;;;;5008433;28;20060;-77
2023/08/15 12:28:33;;;;;;;1.23;0.40;;;22.60;66.20;;;;;;4990671;28;20133;-77
2023/08/15 12:30:58;;;;;;;0.52;0.43;;;22.60;66.60;;;;;;5020879;28;20048;-77
2023/08/15 12:33:24;;;;;;;0.40;0.30;;;22.70;66.50;;;;;;5024322;28;20041;-77
2023/08/15 12:35:50;;;;;;;0.40;0.40;;;22.60;66.30;;;;;;5023244;28;20053;-77
2023/08/15 12:38:15;;;;;;;0.40;0.30;;;22.60;66.30;;;;;;5024132;28;20073;-77
2023/08/15 12:40:41;;;;;;;0.40;0.40;;;22.60;66.10;;;;;;5020492;28;20140;-77